This is the latest recevied weather packets stored in our database for station/object KJ4UBX-11. If no packets are shown the sender has not sent any weather packets the latest 10 day(s).
| Time | Temp. | Humidity | Pressure | Rain* | Wind** | Luminosity | Snow |
|---|---|---|---|---|---|---|---|
| 1778151665 | 14.44° C | 68% | 1005.8 hPa | - | - | - | - |
| 1778151081 | 13.89° C | 75% | 1005.4 hPa | - | - | - | - |
| 1778150497 | 13.89° C | 76% | 1005.8 hPa | - | - | - | - |
| 1778149914 | 13.33° C | 77% | 1005.7 hPa | - | - | - | - |
| 1778149330 | 13.33° C | 75% | 1005.9 hPa | - | - | - | - |
| 1778148747 | 12.78° C | 74% | 1005.5 hPa | - | - | - | - |
| 1778148163 | 12.78° C | 73% | 1005.7 hPa | - | - | - | - |
| 1778147580 | 12.78° C | 74% | 1005.5 hPa | - | - | - | - |
| 1778146997 | 12.78° C | 73% | 1005.1 hPa | - | - | - | - |
| 1778146415 | 12.78° C | 71% | 1005.4 hPa | - | - | - | - |
| 1778145832 | 12.78° C | 73% | 1004.5 hPa | - | - | - | - |
| 1778145248 | 12.78° C | 72% | 1004.7 hPa | - | - | - | - |
| 1778144666 | 13.33° C | 71% | 1005.1 hPa | - | - | - | - |
| 1778144084 | 13.33° C | 70% | 1005.1 hPa | - | - | - | - |
| 1778143500 | 13.33° C | 71% | 1005.2 hPa | - | - | - | - |
| 1778142918 | 13.89° C | 72% | 1005.1 hPa | - | - | - | - |
| 1778142334 | 13.89° C | 69% | 1004.7 hPa | - | - | - | - |
| 1778141753 | 15° C | 67% | 1004.4 hPa | - | - | - | - |
| 1778141168 | 13.89° C | 77% | 1005.1 hPa | - | - | - | - |
| 1778140586 | 13.89° C | 77% | 1004.5 hPa | - | - | - | - |
| 1778140002 | 13.89° C | 83% | 1004.6 hPa | - | - | - | - |
| 1778139420 | 13.89° C | 83% | 1004.6 hPa | - | - | - | - |
| 1778138835 | 13.89° C | 86% | 1004.5 hPa | - | - | - | - |
| 1778138252 | 13.89° C | 86% | 1004.3 hPa | - | - | - | - |
| 1778137669 | 13.89° C | 84% | 1004.2 hPa | - | - | - | - |
* Rain since midnight (hover to see other rain measurements)
** Current wind speed in m/s (hover to see current wind gust speed)